Impacts METAR Board
IDs:

KSLC - Salt Lake City Intl, UT, US

Updated at: 0300 UTC 17 Jul 2018
Potential Impact None Slight Moderate High
Time 16/15Z 16/16Z 16/17Z 16/18Z 16/19Z 16/20Z 16/21Z 16/22Z 16/23Z 17/00Z 17/01Z 17/02Z 17/03Z
Temp80 80 83 86 91 94 96 97 96 97 95 94 87
Dewpt50 52 52 45 42 46 45 43 42 42 43 45 49
Altim30.12 30.11 30.10 30.10 30.09 30.07 30.05 30.03 30.01 29.99 29.98 29.99 29.99
VIS10 10 10 10 10 10 10 10 10 10 10 10 10
CIG150 140 110 140 140 -- -- -- -- -- -- -- 250
CoverBKNBKNBKNBKNBKNSCTSCTSCTSCTSCTSCTSCTBKN
FltCatVFRVFRVFRVFRVFRVFRVFRVFRVFRVFRVFRVFRVFR
WX--------------------------
WDir011020012090360360102030330360360
WSpd5 9 10 15 14 8 10 11 6 8 6 8 9
WGst-- -- -- -- -- -- 16 22 -- -- -- -- --
Raw hourly METARs
KSLC 161454Z VRB05KT 10SM FEW110 BKN150 BKN220 27/10 A3012 RMK AO2 SLP133 VIRGA SW-N CB DSNT NW T02670100 51021 $
KSLC 161554Z 11009KT 10SM FEW090 BKN140 BKN220 27/11 A3011 RMK AO2 SLP132 VIRGA OHD AND DSNT NW-N CB DSNT NW SH DSNT NE T02670111 $
KSLC 161654Z 20010KT 10SM FEW080TCU BKN110 BKN140 28/11 A3010 RMK AO2 SLP130 VIRGA DSNT NE-E AND NW TCU W AND DSNT NW ACC DSNT SE T02830111 $
KSLC 161754Z 12015KT 10SM FEW085 BKN140 BKN230 30/07 A3010 RMK AO2 SLP129 VIRGA DSNT N AND NE CB DSNT SE T03000072 10306 20239 56005
KSLC 161854Z 09014KT 10SM FEW090 BKN140 BKN240 33/06 A3009 RMK AO2 SLP124 CB DSNT E-SE TCU DSNT N T03280056
KSLC 161954Z 36008KT 310V030 10SM FEW090 SCT150 SCT250 34/08 A3007 RMK AO2 SLP114 CB DSNT SE AND NW ACSL DSNT NE T03440078
KSLC 162054Z 36010G16KT 10SM FEW090 FEW120 SCT150 SCT250 36/07 A3005 RMK AO2 SLP108 VIRGA DSNT S CB DSNT E-SE AND SW AND NW ACSL DSNT NE T03560072 58015
KSLC 162154Z 01011G22KT 320V040 10SM FEW095 FEW120 FEW150 SCT250 36/06 A3003 RMK AO2 SLP103 CB DSNT SE AND NW TCU DSNT SW T03610061
KSLC 162254Z 02006KT 10SM FEW095 FEW150 SCT250 36/06 A3001 RMK AO2 SLP096 CB DSNT N TCU DSNT SW T03560056
KSLC 162354Z 03008KT 10SM FEW095 FEW150 SCT250 36/06 A2999 RMK AO2 SLP087 CB DSNT N T03610056 10361 20300 56017
KSLC 170054Z 33006KT 10SM FEW095 FEW120 SCT180 SCT250 35/06 A2998 RMK AO2 SLP087 CB DSNT N TCU DSNT NE AND SE T03500061
KSLC 170154Z 36008KT 10SM FEW095 FEW150 SCT220 34/07 A2999 RMK AO2 SLP087 TCU DSNT SE AND SW T03440072
KSLC 170254Z 36009KT 10SM FEW095 FEW140 SCT180 BKN250 31/09 A2999 RMK AO2 SLP090 TCU DSNT E T03060094 56001



Page loaded:  03:46 UTC  |   08:46 PM Pacific  |   09:46 PM Mountain  |   10:46 PM Central  |   11:46 PM Eastern

 

ADVISORIES

FORECASTS

FORECASTS

OBSERVATIONS

USER TOOLS

ABOUT US